Time;durP1;ratioP1;P1;durP2;ratioP2;P2;SDS_P1;SDS_P2;PMS_P1;PMS_P2;Temp;Humidity;BMP_temperature;BMP_pressure;BME280_temperature;BME280_humidity;BME280_pressure;Samples;Min_cycle;Max_cycle;Signal;HPM_P1;HPM_P2
2022/06/19 00:00:05;;;;;;;12.50;6.37;;;;;;;;;;5067424;28;20679;-76
2022/06/19 00:02:32;;;;;;;10.50;5.97;;;;;;;;;;5062937;28;20552;-75
2022/06/19 00:05:01;;;;;;;12.17;5.60;;;;;;;;;;5057383;28;20437;-76
2022/06/19 00:07:28;;;;;;;15.20;5.73;;;;;;;;;;5051058;28;20508;-76
2022/06/19 00:09:55;;;;;;;15.83;6.00;;;;;;;;;;5051427;28;20891;-77
2022/06/19 00:12:22;;;;;;;10.60;5.20;;;;;;;;;;5050989;28;20998;-77
2022/06/19 00:14:49;;;;;;;11.70;5.70;;;;;;;;;;5051289;28;20453;-78
2022/06/19 00:17:16;;;;;;;10.50;4.80;;;;;;;;;;5061766;28;20441;-79
2022/06/19 00:19:43;;;;;;;10.93;5.40;;;;;;;;;;5072454;28;20444;-79
2022/06/19 00:22:12;;;;;;;8.40;5.37;;;;;;;;;;5056160;28;20537;-78
2022/06/19 00:24:39;;;;;;;11.70;5.80;;;;;;;;;;5072957;28;20849;-79
2022/06/19 00:27:06;;;;;;;15.97;5.90;;;;;;;;;;5062196;28;20527;-79
2022/06/19 00:29:33;;;;;;;14.53;5.97;;;;;;;;;;5069933;28;20445;-78
2022/06/19 00:32:04;;;;;;;10.20;6.10;;;;;;;;;;5072291;28;20506;-78
2022/06/19 00:34:32;;;;;;;10.40;5.47;;;;;;;;;;5072168;28;20435;-79
2022/06/19 00:37:01;;;;;;;8.40;4.80;;;;;;;;;;5070182;28;20464;-78
2022/06/19 00:39:31;;;;;;;9.90;5.50;;;;;;;;;;5068787;28;20441;-79
2022/06/19 00:41:58;;;;;;;10.20;6.63;;;;;;;;;;5052085;28;20469;-78
2022/06/19 00:44:25;;;;;;;12.47;6.90;;;;;;;;;;5051792;28;20450;-79
2022/06/19 00:46:53;;;;;;;15.37;6.30;;;;;;;;;;5051971;28;20453;-78
2022/06/19 00:49:23;;;;;;;16.73;6.47;;;;;;;;;;5051281;28;20970;-78
2022/06/19 00:51:54;;;;;;;11.27;6.00;;;;;;;;;;5051568;28;20539;-78
2022/06/19 00:54:22;;;;;;;10.20;6.33;;;;;;;;;;5051355;28;20445;-77
2022/06/19 00:56:51;;;;;;;11.37;6.50;;;;;;;;;;5051085;28;20495;-77
2022/06/19 00:59:18;;;;;;;15.83;6.30;;;;;;;;;;5050755;28;20445;-76
2022/06/19 01:01:46;;;;;;;11.70;6.10;;;;;;;;;;5051170;28;20470;-76
2022/06/19 01:04:16;;;;;;;9.87;6.10;;;;;;;;;;5050855;28;20488;-76
2022/06/19 01:06:43;;;;;;;13.03;6.90;;;;;;;;;;5051105;28;20503;-77
2022/06/19 01:09:10;;;;;;;10.60;5.90;;;;;;;;;;5050817;28;20547;-77
2022/06/19 01:11:39;;;;;;;13.43;6.17;;;;;;;;;;5051271;28;20462;-77
2022/06/19 01:14:10;;;;;;;15.67;6.10;;;;;;;;;;5050705;28;20499;-76
2022/06/19 01:16:37;;;;;;;12.33;6.50;;;;;;;;;;5051144;28;20951;-77
2022/06/19 01:19:05;;;;;;;13.33;6.40;;;;;;;;;;5051144;28;20522;-77
2022/06/19 01:21:35;;;;;;;14.03;6.60;;;;;;;;;;5051234;28;20506;-76
2022/06/19 01:24:05;;;;;;;10.90;7.00;;;;;;;;;;5051012;28;20442;-77
2022/06/19 01:26:37;;;;;;;7.37;5.20;;;;;;;;;;5059758;28;20498;-77
2022/06/19 01:29:03;;;;;;;10.77;7.00;;;;;;;;;;5062807;28;20473;-77
2022/06/19 01:31:32;;;;;;;9.07;6.20;;;;;;;;;;5070809;28;20473;-78
2022/06/19 01:34:00;;;;;;;10.40;6.53;;;;;;;;;;5071227;28;20421;-77
2022/06/19 01:36:27;;;;;;;11.17;6.43;;;;;;;;;;5072100;28;20452;-77
2022/06/19 01:38:55;;;;;;;10.17;6.00;;;;;;;;;;5072149;28;20514;-77
2022/06/19 01:41:24;;;;;;;13.93;6.53;;;;;;;;;;5072720;28;20476;-77
2022/06/19 01:43:53;;;;;;;10.30;5.90;;;;;;;;;;5072308;28;20820;-76
2022/06/19 01:46:20;;;;;;;16.47;7.20;;;;;;;;;;5073121;28;20440;-78
2022/06/19 01:48:47;;;;;;;7.10;6.10;;;;;;;;;;5072981;28;20522;-77
2022/06/19 01:51:14;;;;;;;10.83;5.80;;;;;;;;;;5072672;28;20522;-76
2022/06/19 01:53:43;;;;;;;11.50;5.97;;;;;;;;;;5072213;28;20491;-77
2022/06/19 01:56:11;;;;;;;10.37;6.40;;;;;;;;;;5072128;28;20455;-76
2022/06/19 01:58:40;;;;;;;10.50;5.87;;;;;;;;;;5071797;28;20496;-76
2022/06/19 02:01:09;;;;;;;14.23;5.60;;;;;;;;;;5071411;28;20486;-76
2022/06/19 02:03:38;;;;;;;15.83;6.27;;;;;;;;;;5071380;28;20452;-76
2022/06/19 02:06:05;;;;;;;11.10;5.97;;;;;;;;;;5071526;28;20445;-77
2022/06/19 02:08:34;;;;;;;11.47;6.00;;;;;;;;;;5061714;28;21193;-77
2022/06/19 02:11:01;;;;;;;13.93;6.10;;;;;;;;;;5050440;28;20468;-77
2022/06/19 02:13:30;;;;;;;12.70;7.30;;;;;;;;;;5050844;28;20457;-76
2022/06/19 02:15:57;;;;;;;10.53;5.87;;;;;;;;;;5054307;28;20484;-77
2022/06/19 02:18:32;;;;;;;11.37;5.50;;;;;;;;;;5055235;28;20848;-77
2022/06/19 02:20:59;;;;;;;12.30;6.40;;;;;;;;;;5054417;28;20460;-77
2022/06/19 02:23:27;;;;;;;10.40;6.23;;;;;;;;;;5054297;28;20442;-77
2022/06/19 02:25:54;;;;;;;7.60;5.67;;;;;;;;;;5054641;28;20625;-77
2022/06/19 02:28:21;;;;;;;13.53;4.90;;;;;;;;;;5054559;28;20560;-76
2022/06/19 02:30:49;;;;;;;13.40;6.23;;;;;;;;;;5055941;28;20469;-75
2022/06/19 02:33:17;;;;;;;23.17;6.80;;;;;;;;;;5055377;28;20499;-76
2022/06/19 02:35:45;;;;;;;8.83;6.03;;;;;;;;;;5054948;28;20452;-77
2022/06/19 02:38:15;;;;;;;18.70;6.57;;;;;;;;;;5054062;28;20437;-77
2022/06/19 02:40:47;;;;;;;12.60;6.50;;;;;;;;;;5054104;28;20461;-76
2022/06/19 02:43:18;;;;;;;8.03;5.47;;;;;;;;;;5053954;28;20437;-78
2022/06/19 02:45:46;;;;;;;15.03;6.20;;;;;;;;;;5053459;28;20972;-77
2022/06/19 02:48:21;;;;;;;8.23;5.40;;;;;;;;;;5053343;28;20547;-77
2022/06/19 02:50:50;;;;;;;13.07;6.00;;;;;;;;;;5054111;28;20551;-76
2022/06/19 02:53:17;;;;;;;9.00;5.90;;;;;;;;;;5053624;28;20526;-77
2022/06/19 02:55:44;;;;;;;10.80;6.03;;;;;;;;;;5053547;28;20514;-77
2022/06/19 02:58:12;;;;;;;10.00;6.20;;;;;;;;;;5053653;28;20434;-77
2022/06/19 03:00:39;;;;;;;9.33;6.00;;;;;;;;;;5053434;28;20457;-77
2022/06/19 03:03:08;;;;;;;11.37;6.13;;;;;;;;;;5053631;28;20787;-77
2022/06/19 03:05:35;;;;;;;13.27;6.80;;;;;;;;;;5053569;28;20445;-76
2022/06/19 03:08:04;;;;;;;14.07;6.60;;;;;;;;;;5053529;28;20477;-76
2022/06/19 03:10:31;;;;;;;14.87;6.50;;;;;;;;;;5053378;28;20995;-76
2022/06/19 03:12:59;;;;;;;12.93;6.30;;;;;;;;;;5052681;28;20441;-76
2022/06/19 03:15:26;;;;;;;8.90;6.57;;;;;;;;;;5053640;28;20540;-77
2022/06/19 03:17:54;;;;;;;9.87;5.97;;;;;;;;;;5053629;28;20536;-77
2022/06/19 03:20:22;;;;;;;12.50;6.57;;;;;;;;;;5053382;28;20944;-76
2022/06/19 03:22:49;;;;;;;16.00;7.10;;;;;;;;;;5053242;28;20492;-76
2022/06/19 03:25:18;;;;;;;10.53;6.33;;;;;;;;;;5053358;28;20515;-77
2022/06/19 03:27:45;;;;;;;12.00;6.03;;;;;;;;;;5053479;28;20491;-77
2022/06/19 03:30:13;;;;;;;16.63;5.77;;;;;;;;;;5065756;28;20513;-77
2022/06/19 03:32:40;;;;;;;12.67;6.20;;;;;;;;;;5072831;28;20510;-77
2022/06/19 03:35:08;;;;;;;11.83;6.40;;;;;;;;;;5073690;28;20510;-77
2022/06/19 03:37:35;;;;;;;11.27;6.73;;;;;;;;;;5073285;28;20445;-77
2022/06/19 03:40:02;;;;;;;9.70;6.20;;;;;;;;;;5072992;28;20457;-76
2022/06/19 03:42:30;;;;;;;8.17;5.77;;;;;;;;;;5072587;28;20459;-77
2022/06/19 03:44:58;;;;;;;12.73;6.17;;;;;;;;;;5072777;28;20444;-78
2022/06/19 03:47:26;;;;;;;8.23;6.20;;;;;;;;;;5072505;28;20494;-77
2022/06/19 03:49:53;;;;;;;12.77;6.00;;;;;;;;;;5072685;28;21027;-77
2022/06/19 03:52:20;;;;;;;11.37;6.40;;;;;;;;;;5072564;28;20960;-76
2022/06/19 03:54:47;;;;;;;13.70;6.20;;;;;;;;;;5072316;28;20448;-78
2022/06/19 03:57:14;;;;;;;12.80;6.37;;;;;;;;;;5072542;28;20456;-77
2022/06/19 03:59:42;;;;;;;15.23;6.77;;;;;;;;;;5072535;28;20498;-76
2022/06/19 04:02:10;;;;;;;9.03;6.00;;;;;;;;;;5072591;28;20858;-77
2022/06/19 04:04:39;;;;;;;11.53;6.60;;;;;;;;;;5072516;28;20451;-77
2022/06/19 04:07:06;;;;;;;11.17;6.20;;;;;;;;;;5074034;28;20449;-77
2022/06/19 04:09:34;;;;;;;10.70;5.73;;;;;;;;;;5057168;28;20485;-77
2022/06/19 04:12:01;;;;;;;11.40;6.40;;;;;;;;;;5053864;28;20450;-77
2022/06/19 04:14:28;;;;;;;10.50;5.83;;;;;;;;;;5051964;28;20453;-77
2022/06/19 04:16:56;;;;;;;14.67;6.20;;;;;;;;;;5052179;28;20499;-77
2022/06/19 04:19:24;;;;;;;13.17;6.20;;;;;;;;;;5052226;28;20953;-78
2022/06/19 04:21:51;;;;;;;14.57;7.00;;;;;;;;;;5051993;28;20738;-77
2022/06/19 04:24:19;;;;;;;11.90;5.23;;;;;;;;;;5052128;28;20537;-78
2022/06/19 04:26:46;;;;;;;11.00;6.60;;;;;;;;;;5052601;28;20632;-77
2022/06/19 04:29:13;;;;;;;9.63;5.93;;;;;;;;;;5052942;28;20481;-77
2022/06/19 04:31:40;;;;;;;9.77;6.20;;;;;;;;;;5052544;28;20465;-77
2022/06/19 04:34:09;;;;;;;15.20;7.83;;;;;;;;;;5052126;28;20822;-77
2022/06/19 04:36:36;;;;;;;10.03;6.27;;;;;;;;;;5066472;28;20539;-77
2022/06/19 04:39:04;;;;;;;7.73;5.83;;;;;;;;;;5067905;28;20441;-77
2022/06/19 04:41:32;;;;;;;9.97;6.63;;;;;;;;;;5072079;28;21044;-77
2022/06/19 04:44:00;;;;;;;15.50;7.07;;;;;;;;;;5071252;28;20488;-77
2022/06/19 04:46:28;;;;;;;17.57;6.83;;;;;;;;;;5071110;28;20448;-77
2022/06/19 04:48:55;;;;;;;12.00;6.57;;;;;;;;;;5071008;28;20862;-77
2022/06/19 04:51:24;;;;;;;9.20;5.97;;;;;;;;;;5071424;28;20521;-77
2022/06/19 04:53:53;;;;;;;13.97;6.53;;;;;;;;;;5071175;28;20540;-77
2022/06/19 04:56:20;;;;;;;9.70;6.57;;;;;;;;;;5071312;28;20936;-77
2022/06/19 04:58:47;;;;;;;9.33;5.67;;;;;;;;;;5071096;28;20444;-76
2022/06/19 05:01:20;;;;;;;13.50;6.40;;;;;;;;;;5071187;28;20472;-77
2022/06/19 05:03:47;;;;;;;12.77;5.70;;;;;;;;;;5070718;28;20498;-76
2022/06/19 05:06:14;;;;;;;12.00;5.70;;;;;;;;;;5071261;28;20444;-77
2022/06/19 05:08:43;;;;;;;9.27;5.00;;;;;;;;;;5071033;28;20476;-77
2022/06/19 05:11:10;;;;;;;8.87;5.20;;;;;;;;;;5071214;28;20460;-76
2022/06/19 05:13:37;;;;;;;12.27;5.80;;;;;;;;;;5070791;28;20445;-77
2022/06/19 05:16:06;;;;;;;9.10;5.13;;;;;;;;;;5070661;28;20497;-77
2022/06/19 05:18:33;;;;;;;7.33;5.70;;;;;;;;;;5070966;28;20445;-76
2022/06/19 05:21:01;;;;;;;7.83;5.47;;;;;;;;;;5070917;28;20477;-76
2022/06/19 05:23:28;;;;;;;12.13;5.37;;;;;;;;;;5070616;28;20440;-77
2022/06/19 05:26:01;;;;;;;11.10;5.90;;;;;;;;;;5078235;28;20452;-77
2022/06/19 05:28:29;;;;;;;10.07;5.50;;;;;;;;;;5088862;28;20557;-77
2022/06/19 05:30:56;;;;;;;10.67;5.10;;;;;;;;;;5078297;28;20464;-77
2022/06/19 05:33:23;;;;;;;10.63;6.20;;;;;;;;;;5073168;28;20457;-76
2022/06/19 05:35:50;;;;;;;11.27;5.50;;;;;;;;;;5072433;28;20433;-76
2022/06/19 05:38:17;;;;;;;11.13;5.47;;;;;;;;;;5071958;28;20521;-77
2022/06/19 05:40:44;;;;;;;9.80;5.50;;;;;;;;;;5070790;28;20456;-78
2022/06/19 05:43:13;;;;;;;8.83;5.23;;;;;;;;;;5070905;28;20460;-77
2022/06/19 05:45:40;;;;;;;14.07;5.60;;;;;;;;;;5070817;28;20531;-77
2022/06/19 05:48:07;;;;;;;10.63;5.77;;;;;;;;;;5071214;28;20452;-77
2022/06/19 05:50:34;;;;;;;13.43;5.60;;;;;;;;;;5069793;28;20527;-77
2022/06/19 05:53:01;;;;;;;11.47;8.63;;;;;;;;;;5071253;28;20453;-77
2022/06/19 05:55:28;;;;;;;21.33;14.07;;;;;;;;;;5070765;28;20527;-78
2022/06/19 05:57:56;;;;;;;9.57;5.30;;;;;;;;;;5070785;28;20809;-77
2022/06/19 06:00:24;;;;;;;11.63;4.80;;;;;;;;;;5070724;28;20914;-77
2022/06/19 06:02:51;;;;;;;13.70;5.43;;;;;;;;;;5070946;28;20436;-77
2022/06/19 06:05:18;;;;;;;12.60;4.70;;;;;;;;;;5071476;28;20449;-78
2022/06/19 06:07:49;;;;;;;16.93;5.70;;;;;;;;;;5070022;28;20698;-77
2022/06/19 06:10:16;;;;;;;15.20;5.40;;;;;;;;;;5052537;28;20481;-78
2022/06/19 06:12:43;;;;;;;13.53;5.17;;;;;;;;;;5053767;28;20453;-77
2022/06/19 06:15:10;;;;;;;13.43;5.07;;;;;;;;;;5054777;28;20442;-77
2022/06/19 06:17:39;;;;;;;9.77;4.87;;;;;;;;;;5054537;28;20450;-77
2022/06/19 06:20:06;;;;;;;15.43;6.00;;;;;;;;;;5054308;28;20453;-77
2022/06/19 06:22:33;;;;;;;12.60;5.80;;;;;;;;;;5051980;28;20538;-77
2022/06/19 06:25:00;;;;;;;8.03;4.47;;;;;;;;;;5051619;28;20500;-78
2022/06/19 06:27:27;;;;;;;13.27;5.50;;;;;;;;;;5050899;28;20445;-77
2022/06/19 06:29:54;;;;;;;9.80;4.90;;;;;;;;;;5051204;28;20485;-78
2022/06/19 06:32:21;;;;;;;11.77;4.70;;;;;;;;;;5051643;28;20465;-77
2022/06/19 06:34:50;;;;;;;14.73;5.43;;;;;;;;;;5049977;28;20487;-77
2022/06/19 06:37:17;;;;;;;12.60;5.27;;;;;;;;;;5049895;28;20856;-77
2022/06/19 06:39:44;;;;;;;7.83;4.70;;;;;;;;;;5050273;28;20437;-77
2022/06/19 06:42:12;;;;;;;12.27;5.00;;;;;;;;;;5050730;28;20449;-76
2022/06/19 06:44:39;;;;;;;11.00;5.10;;;;;;;;;;5050147;28;20532;-77
2022/06/19 06:47:06;;;;;;;11.40;4.80;;;;;;;;;;5049996;28;20437;-78
2022/06/19 06:49:33;;;;;;;9.03;5.00;;;;;;;;;;5052250;28;20481;-77
2022/06/19 06:52:01;;;;;;;15.87;5.30;;;;;;;;;;5055787;28;21000;-77
2022/06/19 06:54:29;;;;;;;12.50;5.33;;;;;;;;;;5058025;28;20438;-77
2022/06/19 06:56:56;;;;;;;12.00;5.43;;;;;;;;;;5058993;28;20446;-78
2022/06/19 06:59:23;;;;;;;16.50;5.53;;;;;;;;;;5059460;28;20462;-77
2022/06/19 07:01:50;;;;;;;16.70;5.90;;;;;;;;;;5057647;28;20519;-77
2022/06/19 07:04:17;;;;;;;10.93;5.70;;;;;;;;;;5054687;28;20446;-77
2022/06/19 07:06:44;;;;;;;12.90;5.77;;;;;;;;;;5054168;28;20440;-77
2022/06/19 07:09:13;;;;;;;12.23;4.70;;;;;;;;;;5070182;28;20510;-77
2022/06/19 07:11:40;;;;;;;14.57;5.53;;;;;;;;;;5074900;28;20464;-78
2022/06/19 07:14:08;;;;;;;12.00;5.53;;;;;;;;;;5075175;28;20928;-78
2022/06/19 07:16:35;;;;;;;20.00;5.20;;;;;;;;;;5073936;28;20842;-77
2022/06/19 07:19:02;;;;;;;11.10;5.60;;;;;;;;;;5068798;28;20448;-76
2022/06/19 07:21:29;;;;;;;16.70;6.43;;;;;;;;;;5072804;28;20460;-77
2022/06/19 07:23:56;;;;;;;9.57;6.20;;;;;;;;;;5072943;28;20440;-78
2022/06/19 07:26:25;;;;;;;11.80;6.00;;;;;;;;;;5073012;28;20494;-77
2022/06/19 07:28:52;;;;;;;11.67;5.80;;;;;;;;;;5073180;28;20461;-78
2022/06/19 07:31:20;;;;;;;10.37;5.37;;;;;;;;;;5073109;28;20476;-77
2022/06/19 07:33:47;;;;;;;12.73;5.80;;;;;;;;;;5072850;28;20440;-78
2022/06/19 07:36:15;;;;;;;14.97;6.23;;;;;;;;;;5073055;28;20498;-77
2022/06/19 07:38:42;;;;;;;11.33;6.00;;;;;;;;;;5073968;28;20444;-78
2022/06/19 07:41:09;;;;;;;11.83;5.60;;;;;;;;;;5073781;28;20452;-77
2022/06/19 07:43:38;;;;;;;12.53;6.27;;;;;;;;;;5072512;28;20470;-77
2022/06/19 07:46:05;;;;;;;10.43;6.77;;;;;;;;;;5072928;28;20506;-78
2022/06/19 07:51:16;;;;;;;11.80;5.87;;;;;;;;;;5072752;28;20827;-77
2022/06/19 07:53:44;;;;;;;12.40;5.67;;;;;;;;;;5072466;28;20441;-78
2022/06/19 07:56:11;;;;;;;18.77;5.40;;;;;;;;;;5068181;28;20990;-76
2022/06/19 07:58:39;;;;;;;11.57;5.73;;;;;;;;;;5071976;28;20452;-77
2022/06/19 08:01:06;;;;;;;12.13;6.40;;;;;;;;;;5072270;28;20578;-77
2022/06/19 08:03:33;;;;;;;16.30;6.30;;;;;;;;;;5072275;28;20445;-77
2022/06/19 08:06:00;;;;;;;11.30;6.20;;;;;;;;;;5072162;28;20444;-77
2022/06/19 08:08:28;;;;;;;14.63;5.40;;;;;;;;;;5072626;28;20691;-77
2022/06/19 08:10:56;;;;;;;10.87;6.50;;;;;;;;;;5071582;28;20484;-77
2022/06/19 08:13:24;;;;;;;13.63;6.80;;;;;;;;;;5071045;28;20866;-78
2022/06/19 08:15:54;;;;;;;9.17;5.80;;;;;;;;;;5072974;28;20561;-78
2022/06/19 08:18:21;;;;;;;11.50;6.70;;;;;;;;;;5069867;28;20459;-76
2022/06/19 08:20:48;;;;;;;14.17;6.17;;;;;;;;;;5072433;28;20506;-77
2022/06/19 08:23:15;;;;;;;12.47;6.40;;;;;;;;;;5072514;28;20440;-77
2022/06/19 08:25:45;;;;;;;14.17;6.47;;;;;;;;;;5065622;28;20445;-78
2022/06/19 08:28:12;;;;;;;11.87;6.60;;;;;;;;;;5072631;28;20441;-78
2022/06/19 08:30:41;;;;;;;10.80;6.80;;;;;;;;;;5072233;28;20477;-78
2022/06/19 08:33:09;;;;;;;9.27;6.30;;;;;;;;;;5072236;28;20463;-78
2022/06/19 08:35:38;;;;;;;17.10;7.43;;;;;;;;;;5073091;28;20821;-79
2022/06/19 08:38:08;;;;;;;16.80;6.53;;;;;;;;;;5072428;28;20445;-78
2022/06/19 08:40:42;;;;;;;10.30;6.60;;;;;;;;;;5072715;28;20822;-78
2022/06/19 08:43:18;;;;;;;17.87;7.00;;;;;;;;;;5071625;28;20819;-77
2022/06/19 08:45:49;;;;;;;11.53;6.73;;;;;;;;;;5072041;28;20439;-78
2022/06/19 08:48:40;;;;;;;13.33;6.90;;;;;;;;;;5072352;28;20498;-79
2022/06/19 08:51:11;;;;;;;11.00;6.73;;;;;;;;;;5071853;28;20634;-78
2022/06/19 08:53:49;;;;;;;11.83;7.60;;;;;;;;;;5072084;28;20514;-78
2022/06/19 08:56:22;;;;;;;18.00;7.73;;;;;;;;;;5066999;28;20929;-78
2022/06/19 08:58:53;;;;;;;12.50;7.80;;;;;;;;;;5070985;28;20441;-78
2022/06/19 09:01:26;;;;;;;11.17;7.77;;;;;;;;;;5071462;28;20448;-78
2022/06/19 09:06:49;;;;;;;13.83;8.40;;;;;;;;;;5071853;28;20424;-79
2022/06/19 09:09:21;;;;;;;15.43;8.60;;;;;;;;;;5070299;28;20532;-78
2022/06/19 09:11:54;;;;;;;8.90;7.43;;;;;;;;;;5071394;28;20484;-77
2022/06/19 09:14:27;;;;;;;13.87;8.43;;;;;;;;;;5069837;28;20448;-78
2022/06/19 09:17:00;;;;;;;13.17;8.20;;;;;;;;;;5069135;28;20455;-78
2022/06/19 09:19:33;;;;;;;11.33;8.00;;;;;;;;;;5070011;28;20445;-77
2022/06/19 09:22:07;;;;;;;9.70;8.73;;;;;;;;;;5071512;28;20876;-78
2022/06/19 09:24:49;;;;;;;8.83;7.20;;;;;;;;;;5068075;28;20444;-78
2022/06/19 09:27:17;;;;;;;12.57;7.00;;;;;;;;;;5071658;28;20448;-77
2022/06/19 09:29:47;;;;;;;8.97;7.30;;;;;;;;;;5071807;28;20530;-77
2022/06/19 09:32:16;;;;;;;9.40;6.73;;;;;;;;;;5071409;28;21218;-78
2022/06/19 09:34:47;;;;;;;7.33;6.60;;;;;;;;;;5072917;28;20424;-77
2022/06/19 09:37:17;;;;;;;10.80;7.47;;;;;;;;;;5071903;28;20429;-77
2022/06/19 09:39:47;;;;;;;7.50;6.80;;;;;;;;;;5071725;28;20441;-77
2022/06/19 09:42:17;;;;;;;16.73;7.97;;;;;;;;;;5073240;28;20452;-78
2022/06/19 09:44:47;;;;;;;10.90;7.30;;;;;;;;;;5071507;28;20447;-79
2022/06/19 09:47:15;;;;;;;11.60;6.90;;;;;;;;;;5072418;28;20421;-78
2022/06/19 09:49:46;;;;;;;10.63;7.10;;;;;;;;;;5071822;28;20920;-78
2022/06/19 09:52:14;;;;;;;10.73;7.00;;;;;;;;;;5072814;28;20482;-79
2022/06/19 09:54:43;;;;;;;9.77;7.20;;;;;;;;;;5072111;28;20498;-78
2022/06/19 09:57:13;;;;;;;9.80;7.80;;;;;;;;;;5072439;28;20452;-78
2022/06/19 09:59:44;;;;;;;11.03;6.70;;;;;;;;;;5072711;28;20498;-78
2022/06/19 10:02:15;;;;;;;6.90;6.20;;;;;;;;;;5071369;28;20451;-79
2022/06/19 10:04:46;;;;;;;12.07;7.23;;;;;;;;;;5071906;28;20486;-78
2022/06/19 10:07:17;;;;;;;11.33;6.67;;;;;;;;;;5072447;28;20436;-78
2022/06/19 10:09:46;;;;;;;11.50;6.47;;;;;;;;;;5071697;28;20443;-79
2022/06/19 10:12:16;;;;;;;10.03;6.67;;;;;;;;;;5071291;28;20472;-79
2022/06/19 10:14:47;;;;;;;15.73;6.40;;;;;;;;;;5071008;28;20454;-78
2022/06/19 10:17:18;;;;;;;9.93;6.80;;;;;;;;;;5070719;28;20459;-78
2022/06/19 10:19:47;;;;;;;16.60;7.40;;;;;;;;;;5070451;28;20464;-78
2022/06/19 10:22:23;;;;;;;8.43;7.27;;;;;;;;;;5070970;28;20432;-78
2022/06/19 10:24:59;;;;;;;12.20;7.70;;;;;;;;;;5072121;28;20455;-77
2022/06/19 10:27:32;;;;;;;13.00;7.27;;;;;;;;;;5070471;28;20459;-77
2022/06/19 10:30:03;;;;;;;13.47;7.20;;;;;;;;;;5069931;28;20576;-78
2022/06/19 10:32:41;;;;;;;11.00;6.50;;;;;;;;;;5071126;28;20452;-77
2022/06/19 10:35:15;;;;;;;10.33;6.23;;;;;;;;;;5071530;28;20436;-78
2022/06/19 10:37:48;;;;;;;12.10;7.23;;;;;;;;;;5074693;28;20916;-78
2022/06/19 10:40:21;;;;;;;9.47;6.33;;;;;;;;;;5076536;28;20564;-77
2022/06/19 10:42:54;;;;;;;9.73;6.30;;;;;;;;;;5074523;28;20428;-78
2022/06/19 10:45:35;;;;;;;8.37;6.37;;;;;;;;;;5076148;28;20428;-78
2022/06/19 10:48:20;;;;;;;8.90;6.97;;;;;;;;;;5075781;28;20465;-78
2022/06/19 10:50:52;;;;;;;13.13;6.43;;;;;;;;;;5074668;28;20476;-79
2022/06/19 10:53:26;;;;;;;10.27;6.43;;;;;;;;;;5075662;28;20441;-79
2022/06/19 10:55:55;;;;;;;10.27;7.50;;;;;;;;;;5075216;28;20803;-78
2022/06/19 10:58:23;;;;;;;9.60;6.53;;;;;;;;;;5074414;28;20452;-79
2022/06/19 11:00:52;;;;;;;14.30;7.20;;;;;;;;;;5074748;28;20460;-79
2022/06/19 11:06:11;;;;;;;9.53;7.43;;;;;;;;;;5074160;28;20424;-79
2022/06/19 11:08:40;;;;;;;9.67;6.87;;;;;;;;;;5065945;28;20446;-78
2022/06/19 11:11:07;;;;;;;9.43;7.10;;;;;;;;;;5054330;28;20484;-78
2022/06/19 11:13:53;;;;;;;10.43;7.97;;;;;;;;;;5060287;28;20452;-78
2022/06/19 11:16:20;;;;;;;8.50;6.57;;;;;;;;;;5076342;28;20551;-78
2022/06/19 11:18:48;;;;;;;7.40;6.60;;;;;;;;;;5075368;28;20441;-79
2022/06/19 11:21:19;;;;;;;13.30;6.30;;;;;;;;;;5075559;28;20487;-78
2022/06/19 11:23:52;;;;;;;8.47;6.30;;;;;;;;;;5074922;28;20480;-79
2022/06/19 11:26:21;;;;;;;13.13;6.30;;;;;;;;;;5075559;28;20445;-79
2022/06/19 11:28:50;;;;;;;11.03;6.80;;;;;;;;;;5076003;28;20452;-79
2022/06/19 11:31:18;;;;;;;10.83;6.60;;;;;;;;;;5075971;28;20488;-78
2022/06/19 11:33:47;;;;;;;11.87;7.00;;;;;;;;;;5074812;28;20444;-78
2022/06/19 11:36:27;;;;;;;14.60;6.30;;;;;;;;;;5075625;28;20444;-79
2022/06/19 11:38:55;;;;;;;7.27;5.90;;;;;;;;;;5074718;28;20522;-79
2022/06/19 11:41:29;;;;;;;16.50;6.43;;;;;;;;;;5074582;28;20464;-78
2022/06/19 11:44:17;;;;;;;12.87;5.90;;;;;;;;;;5072396;28;20448;-79
2022/06/19 11:46:46;;;;;;;7.93;6.33;;;;;;;;;;5066553;28;20823;-77
2022/06/19 11:49:31;;;;;;;12.83;7.60;;;;;;;;;;5074205;28;20440;-80
2022/06/19 11:52:01;;;;;;;10.83;5.87;;;;;;;;;;5075574;28;20481;-80
2022/06/19 11:54:31;;;;;;;13.10;6.20;;;;;;;;;;5072610;28;20452;-79
2022/06/19 11:56:58;;;;;;;9.60;6.00;;;;;;;;;;5073751;28;20853;-80
2022/06/19 11:59:28;;;;;;;8.30;6.27;;;;;;;;;;5074286;28;20514;-79
2022/06/19 12:01:55;;;;;;;12.17;6.47;;;;;;;;;;5073218;28;20543;-79
2022/06/19 12:04:27;;;;;;;8.10;6.53;;;;;;;;;;5073319;28;20452;-80
2022/06/19 12:06:56;;;;;;;12.90;6.90;;;;;;;;;;5073020;28;20479;-80
2022/06/19 12:09:34;;;;;;;13.83;6.73;;;;;;;;;;5074252;28;20440;-80
2022/06/19 12:12:06;;;;;;;9.90;6.80;;;;;;;;;;5072519;28;20484;-80
2022/06/19 12:14:35;;;;;;;9.33;6.20;;;;;;;;;;5071988;28;20804;-80
2022/06/19 12:17:15;;;;;;;11.80;6.40;;;;;;;;;;5072240;28;20449;-78
2022/06/19 12:19:48;;;;;;;9.47;6.00;;;;;;;;;;5072913;28;21050;-78
2022/06/19 12:22:16;;;;;;;9.53;6.67;;;;;;;;;;5074569;28;20448;-80
2022/06/19 12:24:46;;;;;;;14.43;6.03;;;;;;;;;;5074087;28;20457;-80
2022/06/19 12:27:15;;;;;;;9.53;6.23;;;;;;;;;;5072465;28;20502;-79
2022/06/19 12:29:44;;;;;;;8.83;5.90;;;;;;;;;;5073437;28;20929;-80
2022/06/19 12:32:14;;;;;;;13.17;6.70;;;;;;;;;;5072841;28;20553;-80
2022/06/19 12:34:43;;;;;;;12.70;6.53;;;;;;;;;;5071962;28;20518;-80
2022/06/19 12:37:15;;;;;;;12.13;5.70;;;;;;;;;;5072310;28;20441;-80
2022/06/19 12:39:44;;;;;;;10.90;7.30;;;;;;;;;;5073522;28;20451;-81
2022/06/19 12:42:15;;;;;;;11.40;6.17;;;;;;;;;;5074755;28;20521;-80
2022/06/19 12:44:57;;;;;;;9.53;6.77;;;;;;;;;;5072341;28;20463;-80
2022/06/19 12:47:28;;;;;;;8.77;5.63;;;;;;;;;;5071922;28;20425;-79
2022/06/19 12:50:08;;;;;;;12.40;6.33;;;;;;;;;;5070860;28;20452;-80
2022/06/19 12:52:40;;;;;;;8.97;6.80;;;;;;;;;;5070689;28;20478;-79
2022/06/19 12:55:23;;;;;;;10.13;6.57;;;;;;;;;;5071264;28;20932;-80
2022/06/19 12:57:58;;;;;;;12.20;6.43;;;;;;;;;;5070594;28;20849;-81
2022/06/19 13:00:30;;;;;;;8.97;6.07;;;;;;;;;;5072166;28;20525;-80
2022/06/19 13:03:19;;;;;;;9.93;6.30;;;;;;;;;;5071568;28;20522;-80
2022/06/19 13:05:50;;;;;;;12.93;6.50;;;;;;;;;;5071712;28;20444;-80
2022/06/19 13:08:22;;;;;;;11.40;6.27;;;;;;;;;;5071501;28;20467;-79
2022/06/19 13:10:55;;;;;;;11.40;6.10;;;;;;;;;;5070539;28;20510;-81
2022/06/19 13:13:36;;;;;;;10.60;7.10;;;;;;;;;;5072802;28;20425;-79
2022/06/19 13:16:05;;;;;;;15.80;6.63;;;;;;;;;;5075572;28;20462;-79
2022/06/19 13:18:40;;;;;;;7.87;6.10;;;;;;;;;;5077024;28;20519;-80
2022/06/19 13:21:13;;;;;;;13.40;6.40;;;;;;;;;;5076025;28;20472;-79
2022/06/19 13:23:45;;;;;;;10.63;6.17;;;;;;;;;;5075994;28;20510;-79
2022/06/19 13:29:16;;;;;;;10.40;6.47;;;;;;;;;;5078076;28;20424;-80
2022/06/19 13:31:46;;;;;;;8.67;6.43;;;;;;;;;;5077529;28;20496;-79
2022/06/19 13:34:22;;;;;;;8.03;5.07;;;;;;;;;;5078572;28;20845;-80
2022/06/19 13:37:06;;;;;;;7.80;6.10;;;;;;;;;;5073759;28;20845;-79
2022/06/19 13:39:39;;;;;;;9.30;6.30;;;;;;;;;;5074798;28;20437;-79
2022/06/19 13:42:13;;;;;;;8.70;5.70;;;;;;;;;;5069913;28;20486;-79
2022/06/19 13:44:48;;;;;;;17.63;6.37;;;;;;;;;;5066200;28;20759;-79
2022/06/19 13:47:18;;;;;;;14.80;6.10;;;;;;;;;;5076226;28;20791;-81
2022/06/19 13:49:48;;;;;;;10.70;5.80;;;;;;;;;;5074744;28;20448;-79
2022/06/19 13:52:30;;;;;;;12.40;6.83;;;;;;;;;;5076051;28;20499;-80
2022/06/19 13:55:00;;;;;;;14.33;6.30;;;;;;;;;;5074405;28;20451;-80
2022/06/19 13:57:30;;;;;;;10.13;5.80;;;;;;;;;;5074893;28;20926;-79
2022/06/19 14:00:03;;;;;;;12.00;6.03;;;;;;;;;;5073963;28;21183;-79
2022/06/19 14:02:39;;;;;;;12.30;6.73;;;;;;;;;;5072651;28;20472;-80
2022/06/19 14:05:10;;;;;;;14.17;6.70;;;;;;;;;;5070399;28;20489;-78
2022/06/19 14:07:44;;;;;;;9.40;6.37;;;;;;;;;;5074871;28;20914;-79
2022/06/19 14:10:15;;;;;;;7.70;5.67;;;;;;;;;;5074783;28;20530;-79
2022/06/19 14:12:44;;;;;;;11.90;6.43;;;;;;;;;;5071551;28;20480;-79
2022/06/19 14:15:17;;;;;;;10.10;5.93;;;;;;;;;;5074691;28;20869;-79
2022/06/19 14:17:50;;;;;;;11.33;6.50;;;;;;;;;;5063833;28;20939;-79
2022/06/19 14:20:23;;;;;;;8.00;6.30;;;;;;;;;;5070896;28;20484;-78
2022/06/19 14:22:53;;;;;;;10.20;6.00;;;;;;;;;;5071211;28;20466;-78
2022/06/19 14:25:25;;;;;;;13.87;6.33;;;;;;;;;;5070893;28;20448;-78
2022/06/19 14:27:59;;;;;;;11.10;6.47;;;;;;;;;;5070416;28;20448;-78
2022/06/19 14:30:29;;;;;;;10.47;6.20;;;;;;;;;;5072036;28;20456;-78
2022/06/19 14:32:57;;;;;;;10.20;6.50;;;;;;;;;;5071139;28;20552;-79
2022/06/19 14:35:29;;;;;;;12.77;6.53;;;;;;;;;;5071566;28;20490;-78
2022/06/19 14:37:58;;;;;;;11.50;6.33;;;;;;;;;;5071087;28;20502;-80
2022/06/19 14:40:36;;;;;;;13.13;6.27;;;;;;;;;;5069581;28;20479;-79
2022/06/19 14:43:06;;;;;;;10.77;7.10;;;;;;;;;;5068902;28;20531;-78
2022/06/19 14:45:35;;;;;;;9.93;6.30;;;;;;;;;;5069195;28;20464;-78
2022/06/19 14:48:06;;;;;;;11.60;6.43;;;;;;;;;;5069543;28;20505;-79
2022/06/19 14:50:43;;;;;;;8.70;6.10;;;;;;;;;;5070545;28;20456;-80
2022/06/19 14:53:22;;;;;;;10.23;5.87;;;;;;;;;;5071141;28;20463;-78
2022/06/19 14:55:52;;;;;;;13.20;6.17;;;;;;;;;;5069357;28;20466;-80
2022/06/19 14:58:21;;;;;;;9.27;5.50;;;;;;;;;;5069402;28;20524;-79